Time;durP1;ratioP1;P1;durP2;ratioP2;P2;SDS_P1;SDS_P2;PMS_P1;PMS_P2;Temp;Humidity;BMP_temperature;BMP_pressure;BME280_temperature;BME280_humidity;BME280_pressure;Samples;Min_cycle;Max_cycle;Signal;HPM_P1;HPM_P2
2022/02/20 00:01:45;;;;;;;7.35;1.70;;;7.00;80.50;;;;;;5016904;28;20052;-79
2022/02/20 00:04:11;;;;;;;6.50;1.50;;;7.00;80.40;;;;;;5011217;28;20033;-79
2022/02/20 00:06:36;;;;;;;5.63;1.67;;;7.00;80.50;;;;;;5018377;28;20043;-79
2022/02/20 00:09:02;;;;;;;6.15;1.92;;;7.00;80.50;;;;;;5015317;28;20397;-78
2022/02/20 00:11:28;;;;;;;7.18;1.85;;;7.00;80.60;;;;;;5019119;28;20033;-79
2022/02/20 00:13:54;;;;;;;6.28;1.70;;;7.00;80.60;;;;;;5014404;28;20499;-78
2022/02/20 00:16:20;;;;;;;5.20;1.40;;;7.00;80.60;;;;;;5012508;28;20026;-79
2022/02/20 00:18:45;;;;;;;4.07;1.48;;;6.90;80.50;;;;;;5016876;28;20026;-78
2022/02/20 00:21:11;;;;;;;4.68;1.23;;;6.90;80.40;;;;;;5012559;28;20025;-78
2022/02/20 00:23:36;;;;;;;7.25;1.60;;;6.90;80.40;;;;;;5015953;28;20033;-79
2022/02/20 00:26:03;;;;;;;7.05;1.50;;;6.90;80.20;;;;;;5011286;28;20037;-79
2022/02/20 00:28:28;;;;;;;3.75;1.55;;;6.90;80.10;;;;;;5017747;28;20030;-80
2022/02/20 00:30:54;;;;;;;6.30;1.50;;;6.80;80.00;;;;;;5015505;28;20480;-79
2022/02/20 00:33:19;;;;;;;5.57;1.60;;;6.70;79.90;;;;;;5024010;28;20026;-78
2022/02/20 00:35:45;;;;;;;4.80;1.50;;;6.70;80.00;;;;;;5019192;28;20112;-78
2022/02/20 00:38:11;;;;;;;5.18;1.63;;;6.60;79.80;;;;;;5021417;28;20069;-78
2022/02/20 00:40:37;;;;;;;4.53;1.55;;;6.60;79.90;;;;;;5014099;28;20041;-78
2022/02/20 00:43:04;;;;;;;7.05;1.60;;;6.60;79.90;;;;;;5027402;28;20021;-78
2022/02/20 00:45:30;;;;;;;6.10;1.95;;;6.50;79.80;;;;;;5020293;28;20172;-79
2022/02/20 00:47:56;;;;;;;4.55;1.40;;;6.40;79.80;;;;;;5022150;28;20091;-79
2022/02/20 00:50:22;;;;;;;4.72;1.65;;;6.40;79.90;;;;;;5020461;28;20480;-78
2022/02/20 00:52:47;;;;;;;6.97;1.70;;;6.30;80.00;;;;;;5013719;28;20030;-79
2022/02/20 00:55:13;;;;;;;3.47;1.42;;;6.30;80.10;;;;;;5022589;28;20439;-79
2022/02/20 00:57:39;;;;;;;4.03;1.33;;;6.30;80.20;;;;;;5019029;28;20022;-79
2022/02/20 01:00:07;;;;;;;8.50;1.73;;;6.30;80.20;;;;;;5023599;28;20077;-79
2022/02/20 01:02:33;;;;;;;5.57;1.70;;;6.30;80.10;;;;;;5011624;28;20061;-79
2022/02/20 01:04:58;;;;;;;4.70;1.23;;;6.30;80.10;;;;;;5014182;28;20055;-79
2022/02/20 01:07:24;;;;;;;4.03;1.60;;;6.20;80.20;;;;;;5024408;28;20115;-79
2022/02/20 01:09:50;;;;;;;3.95;1.52;;;6.30;80.30;;;;;;5020393;28;20576;-79
2022/02/20 01:12:17;;;;;;;3.17;1.25;;;6.20;80.20;;;;;;5023856;28;20018;-79
2022/02/20 01:14:44;;;;;;;4.55;1.75;;;6.20;80.30;;;;;;5018827;28;20078;-79
2022/02/20 01:17:11;;;;;;;4.75;1.38;;;6.20;80.40;;;;;;5012184;28;20060;-78
2022/02/20 01:19:37;;;;;;;4.80;1.20;;;6.20;80.40;;;;;;5025490;28;20021;-78
2022/02/20 01:22:03;;;;;;;5.50;1.40;;;6.20;80.20;;;;;;5015300;28;20025;-79
2022/02/20 01:24:29;;;;;;;5.32;1.30;;;6.20;80.20;;;;;;5024645;28;20365;-78
2022/02/20 01:26:55;;;;;;;4.60;1.45;;;6.20;80.20;;;;;;5012099;28;20103;-79
2022/02/20 01:29:22;;;;;;;5.45;1.10;;;6.20;80.20;;;;;;5018842;28;20077;-78
2022/02/20 01:31:53;;;;;;;6.47;1.30;;;6.30;80.30;;;;;;5019244;28;20045;-78
2022/02/20 01:34:22;;;;;;;3.63;1.33;;;6.30;80.20;;;;;;5022343;28;20104;-79
2022/02/20 01:36:48;;;;;;;4.53;1.15;;;6.30;80.10;;;;;;5011733;28;20060;-78
2022/02/20 01:39:13;;;;;;;3.92;1.10;;;6.30;80.10;;;;;;5026312;28;20057;-78
2022/02/20 01:41:39;;;;;;;2.35;1.08;;;6.30;80.10;;;;;;5011798;28;20061;-79
2022/02/20 01:44:06;;;;;;;4.03;1.27;;;6.30;80.70;;;;;;5020655;28;20088;-78
2022/02/20 01:46:32;;;;;;;4.57;1.30;;;6.30;80.10;;;;;;5017273;28;20038;-79
2022/02/20 01:48:58;;;;;;;2.92;1.05;;;6.40;80.10;;;;;;5028115;28;20025;-78
2022/02/20 01:51:24;;;;;;;2.80;1.20;;;6.40;80.00;;;;;;5012422;28;20036;-78
2022/02/20 01:53:49;;;;;;;3.72;1.40;;;6.40;79.90;;;;;;5020134;28;20112;-79
2022/02/20 01:56:16;;;;;;;3.97;1.40;;;6.40;79.80;;;;;;5017821;28;20464;-79
2022/02/20 01:58:42;;;;;;;2.05;1.38;;;6.40;79.80;;;;;;5017526;28;20037;-78
2022/02/20 02:01:08;;;;;;;2.60;1.30;;;6.40;79.80;;;;;;5011651;28;20057;-80
2022/02/20 02:03:36;;;;;;;4.85;1.60;;;6.40;79.60;;;;;;5018045;28;20064;-78
2022/02/20 02:06:02;;;;;;;2.65;1.20;;;6.50;79.60;;;;;;5023141;28;20034;-78
2022/02/20 02:08:27;;;;;;;2.88;1.38;;;6.40;79.40;;;;;;5014214;28;20091;-77
2022/02/20 02:10:53;;;;;;;2.85;1.38;;;6.40;79.40;;;;;;5020076;28;20502;-78
2022/02/20 02:13:19;;;;;;;4.18;1.40;;;6.40;79.30;;;;;;5025615;28;20037;-77
2022/02/20 02:15:51;;;;;;;3.53;1.38;;;6.40;79.40;;;;;;5013237;28;20022;-78
2022/02/20 02:18:18;;;;;;;3.58;1.00;;;6.40;79.30;;;;;;5006945;28;20028;-77
2022/02/20 02:20:44;;;;;;;1.88;1.20;;;6.40;79.30;;;;;;5019934;28;20022;-78
2022/02/20 02:23:10;;;;;;;2.47;1.20;;;6.40;79.30;;;;;;5014080;28;20385;-77
2022/02/20 02:25:38;;;;;;;2.15;1.25;;;6.50;79.20;;;;;;5020475;28;20026;-76
2022/02/20 02:28:04;;;;;;;2.63;1.35;;;6.50;79.20;;;;;;5020925;28;20045;-78
2022/02/20 02:30:29;;;;;;;4.30;1.17;;;6.50;79.10;;;;;;5023405;28;20030;-77
2022/02/20 02:32:55;;;;;;;4.60;1.40;;;6.50;79.20;;;;;;5012467;28;20030;-77
2022/02/20 02:35:20;;;;;;;2.13;0.88;;;6.50;79.20;;;;;;5022958;28;20021;-77
2022/02/20 02:37:46;;;;;;;2.30;0.90;;;6.50;79.10;;;;;;5012696;28;20017;-77
2022/02/20 02:40:12;;;;;;;1.98;1.00;;;6.50;79.10;;;;;;5021616;28;20053;-78
2022/02/20 02:42:37;;;;;;;2.33;1.20;;;6.50;78.90;;;;;;5013842;28;20445;-80
2022/02/20 02:45:04;;;;;;;1.75;1.20;;;6.50;78.90;;;;;;5019486;28;20021;-78
2022/02/20 02:47:30;;;;;;;1.83;1.00;;;6.50;78.80;;;;;;5009072;28;20443;-77
2022/02/20 02:49:56;;;;;;;2.50;1.30;;;6.50;78.70;;;;;;5019879;28;20018;-76
2022/02/20 02:52:21;;;;;;;2.92;1.10;;;6.50;78.70;;;;;;5018284;28;20080;-77
2022/02/20 02:54:47;;;;;;;2.22;1.17;;;6.50;78.80;;;;;;5017651;28;20384;-77
2022/02/20 02:57:13;;;;;;;2.47;1.15;;;6.50;78.60;;;;;;5014394;28;20021;-77
2022/02/20 02:59:39;;;;;;;2.90;1.25;;;6.50;78.60;;;;;;5020819;28;20496;-78
2022/02/20 03:02:04;;;;;;;2.25;1.00;;;6.60;78.60;;;;;;5021794;28;20022;-78
2022/02/20 03:04:31;;;;;;;2.30;1.23;;;6.60;78.60;;;;;;5017687;28;20037;-77
2022/02/20 03:06:57;;;;;;;3.83;1.20;;;6.60;78.50;;;;;;5017756;28;20030;-79
2022/02/20 03:09:23;;;;;;;2.63;0.90;;;6.60;78.40;;;;;;5024114;28;20029;-77
2022/02/20 03:11:48;;;;;;;3.05;0.90;;;6.70;78.40;;;;;;5015547;28;20095;-78
2022/02/20 03:14:14;;;;;;;2.83;1.00;;;6.70;78.30;;;;;;5018870;28;20049;-78
2022/02/20 03:16:39;;;;;;;3.25;1.38;;;6.70;78.30;;;;;;5013987;28;20128;-77
2022/02/20 03:19:05;;;;;;;4.40;1.17;;;6.60;78.30;;;;;;5018825;28;20083;-76
2022/02/20 03:21:30;;;;;;;2.35;0.90;;;6.60;78.30;;;;;;5014788;28;20658;-77
2022/02/20 03:23:56;;;;;;;1.67;1.00;;;6.60;78.40;;;;;;5017316;28;20113;-77
2022/02/20 03:26:22;;;;;;;1.60;1.10;;;6.50;78.50;;;;;;5017594;28;20137;-77
2022/02/20 03:28:47;;;;;;;2.40;1.10;;;6.50;78.40;;;;;;5009471;28;20080;-78
2022/02/20 03:31:13;;;;;;;4.13;1.20;;;6.50;78.60;;;;;;5021553;28;20029;-77
2022/02/20 03:33:38;;;;;;;2.40;0.98;;;6.50;78.50;;;;;;5006485;28;20499;-76
2022/02/20 03:36:04;;;;;;;2.83;0.90;;;6.40;78.50;;;;;;5021877;28;20488;-76
2022/02/20 03:38:30;;;;;;;2.53;0.95;;;6.40;78.60;;;;;;5016822;28;20376;-78
2022/02/20 03:40:55;;;;;;;0.98;0.90;;;6.40;78.70;;;;;;5022975;28;20029;-78
2022/02/20 03:43:21;;;;;;;3.60;0.90;;;6.40;78.60;;;;;;5009494;28;20674;-77
2022/02/20 03:45:46;;;;;;;2.70;1.00;;;6.40;78.50;;;;;;5018447;28;20391;-76
2022/02/20 03:48:12;;;;;;;2.65;0.88;;;6.50;78.60;;;;;;5007800;28;20548;-77
2022/02/20 03:50:37;;;;;;;4.22;0.98;;;6.50;78.60;;;;;;5014051;28;20010;-76
2022/02/20 03:53:03;;;;;;;2.70;0.80;;;6.40;78.50;;;;;;5019949;28;20383;-77
2022/02/20 03:55:29;;;;;;;1.63;0.82;;;6.40;78.60;;;;;;5018541;28;20026;-77
2022/02/20 03:57:54;;;;;;;2.50;0.90;;;6.40;78.60;;;;;;5017180;28;20076;-76
2022/02/20 04:00:22;;;;;;;1.77;0.80;;;6.40;78.60;;;;;;5015145;28;20037;-77
2022/02/20 04:02:48;;;;;;;3.10;1.00;;;6.40;78.60;;;;;;5012852;28;20037;-76
2022/02/20 04:05:15;;;;;;;2.33;0.82;;;6.50;78.50;;;;;;5012194;28;20040;-77
2022/02/20 04:07:42;;;;;;;2.10;0.90;;;6.40;78.40;;;;;;5015470;28;20052;-77
2022/02/20 04:10:10;;;;;;;4.35;1.55;;;6.50;78.40;;;;;;5028117;28;20089;-78
2022/02/20 04:12:35;;;;;;;2.60;1.00;;;6.50;78.40;;;;;;5018086;28;20025;-78
2022/02/20 04:15:01;;;;;;;2.40;1.08;;;6.40;78.40;;;;;;5018864;28;20372;-78
2022/02/20 04:17:27;;;;;;;3.80;1.60;;;6.40;78.50;;;;;;5016485;28;20040;-78
2022/02/20 04:19:53;;;;;;;4.13;1.40;;;6.40;78.60;;;;;;5027790;28;20029;-78
2022/02/20 04:22:20;;;;;;;4.30;1.40;;;6.40;78.70;;;;;;5013989;28;20158;-77
2022/02/20 04:24:46;;;;;;;3.47;1.30;;;6.40;78.80;;;;;;5014889;28;20034;-77
2022/02/20 04:27:12;;;;;;;3.10;1.20;;;6.40;78.70;;;;;;5021167;28;20034;-77
2022/02/20 04:29:37;;;;;;;4.82;1.48;;;6.40;78.70;;;;;;5013631;28;20066;-78
2022/02/20 04:32:04;;;;;;;4.18;1.58;;;6.40;78.80;;;;;;5010556;28;20092;-78
2022/02/20 04:34:29;;;;;;;4.25;1.63;;;6.30;78.90;;;;;;5010662;28;20029;-77
2022/02/20 04:36:55;;;;;;;3.78;1.38;;;6.20;79.10;;;;;;5012721;28;20033;-77
2022/02/20 04:39:20;;;;;;;5.82;1.75;;;6.20;79.40;;;;;;5011058;28;20034;-77
2022/02/20 04:41:46;;;;;;;3.97;1.50;;;6.10;79.60;;;;;;5013275;28;20392;-79
2022/02/20 04:44:12;;;;;;;3.35;1.30;;;6.10;79.70;;;;;;5011877;28;20030;-78
2022/02/20 04:46:38;;;;;;;7.43;2.17;;;6.10;79.90;;;;;;5012097;28;20044;-77
2022/02/20 04:49:05;;;;;;;5.13;1.90;;;6.10;79.90;;;;;;5013024;28;20025;-77
2022/02/20 04:51:33;;;;;;;4.82;1.60;;;6.10;80.10;;;;;;5010489;28;20025;-77
2022/02/20 04:53:59;;;;;;;5.25;1.98;;;6.10;80.10;;;;;;5013052;28;20389;-78
2022/02/20 04:56:25;;;;;;;5.82;1.77;;;6.10;80.10;;;;;;5007259;28;20611;-78
2022/02/20 04:58:51;;;;;;;5.35;1.88;;;6.10;80.40;;;;;;5011321;28;20030;-77
2022/02/20 05:01:16;;;;;;;6.25;1.90;;;6.10;80.10;;;;;;5009129;28;20039;-77
2022/02/20 05:03:42;;;;;;;6.05;1.80;;;6.10;80.00;;;;;;5011165;28;20021;-76
2022/02/20 05:06:07;;;;;;;10.02;3.35;;;6.10;80.00;;;;;;5015356;28;20018;-78
2022/02/20 05:08:33;;;;;;;4.45;2.53;;;6.10;80.00;;;;;;5013699;28;20090;-78
2022/02/20 05:10:59;;;;;;;5.65;2.30;;;6.10;80.20;;;;;;5020223;28;20029;-77
2022/02/20 05:13:24;;;;;;;6.90;2.40;;;6.10;80.50;;;;;;5014928;28;20041;-77
2022/02/20 05:15:50;;;;;;;6.72;2.85;;;6.00;80.50;;;;;;5015883;28;20034;-78
2022/02/20 05:18:15;;;;;;;7.40;3.70;;;6.10;80.70;;;;;;5019500;28;20357;-77
2022/02/20 05:20:42;;;;;;;6.18;3.13;;;6.10;81.00;;;;;;5020127;28;20029;-78
2022/02/20 05:23:08;;;;;;;7.18;3.15;;;6.00;81.20;;;;;;5021671;28;20054;-78
2022/02/20 05:25:34;;;;;;;6.80;3.17;;;6.10;81.20;;;;;;5022187;28;20022;-77
2022/02/20 05:27:59;;;;;;;9.45;4.43;;;6.10;81.30;;;;;;5014767;28;20034;-77
2022/02/20 05:30:27;;;;;;;8.43;5.00;;;6.00;81.60;;;;;;5015697;28;20036;-78
2022/02/20 05:32:52;;;;;;;8.68;5.07;;;6.00;82.00;;;;;;5016378;28;20029;-77
2022/02/20 05:35:19;;;;;;;7.68;4.00;;;6.00;82.10;;;;;;5015573;28;20373;-77
2022/02/20 05:37:47;;;;;;;9.02;5.10;;;6.10;82.10;;;;;;5012638;28;20026;-78
2022/02/20 05:40:16;;;;;;;9.20;4.50;;;6.10;82.10;;;;;;5016601;28;20096;-77
2022/02/20 05:42:42;;;;;;;9.07;3.83;;;6.00;82.40;;;;;;5023509;28;20116;-76
2022/02/20 05:45:08;;;;;;;7.68;4.07;;;6.00;82.50;;;;;;5017630;28;20128;-77
2022/02/20 05:47:35;;;;;;;13.48;5.47;;;6.10;82.70;;;;;;5019854;28;20044;-77
2022/02/20 05:50:01;;;;;;;7.82;3.90;;;6.00;83.20;;;;;;5011631;28;20018;-77
2022/02/20 05:52:27;;;;;;;11.48;5.43;;;6.00;83.30;;;;;;5019528;28;20103;-77
2022/02/20 05:54:52;;;;;;;6.32;4.03;;;6.00;83.60;;;;;;5018289;28;20619;-77
2022/02/20 05:57:18;;;;;;;9.23;5.40;;;6.00;83.70;;;;;;5018689;28;20075;-77
2022/02/20 05:59:44;;;;;;;9.98;5.88;;;6.00;83.80;;;;;;5011399;28;20041;-78
2022/02/20 06:02:11;;;;;;;13.48;6.93;;;6.00;84.10;;;;;;5012367;28;20115;-77
2022/02/20 06:04:37;;;;;;;7.22;4.35;;;5.90;84.30;;;;;;5011817;28;20075;-77
2022/02/20 06:07:03;;;;;;;7.75;4.70;;;6.00;84.40;;;;;;5018038;28;20495;-77
2022/02/20 06:09:29;;;;;;;11.52;5.55;;;6.00;85.00;;;;;;5008201;28;20107;-77
2022/02/20 06:11:55;;;;;;;11.95;5.60;;;6.10;84.50;;;;;;5019025;28;20026;-77
2022/02/20 06:14:20;;;;;;;9.35;4.45;;;6.10;84.70;;;;;;5017661;28;20125;-77
2022/02/20 06:16:46;;;;;;;10.07;6.10;;;6.10;84.60;;;;;;5013870;28;20029;-77
2022/02/20 06:19:11;;;;;;;11.45;5.93;;;6.10;84.90;;;;;;5022205;28;20017;-77
2022/02/20 06:21:37;;;;;;;12.48;5.38;;;6.10;85.30;;;;;;5017743;28;20021;-76
2022/02/20 06:24:03;;;;;;;8.70;4.97;;;6.10;85.40;;;;;;5020876;28;20030;-77
2022/02/20 06:26:28;;;;;;;13.85;6.53;;;6.10;86.20;;;;;;5017259;28;20048;-77
2022/02/20 06:28:54;;;;;;;21.08;8.18;;;6.20;85.70;;;;;;5021930;28;20025;-76
2022/02/20 06:31:19;;;;;;;12.82;5.75;;;6.20;86.00;;;;;;5013003;28;20027;-76
2022/02/20 06:33:47;;;;;;;14.43;6.10;;;6.20;86.30;;;;;;5013856;28;20030;-76
2022/02/20 06:36:13;;;;;;;14.25;6.07;;;6.30;86.70;;;;;;5010645;28;20033;-76
2022/02/20 06:38:39;;;;;;;13.05;5.60;;;6.30;86.90;;;;;;5012536;28;20550;-79
2022/02/20 06:41:04;;;;;;;21.27;7.78;;;6.30;87.20;;;;;;5009388;28;20072;-77
2022/02/20 06:43:30;;;;;;;14.07;5.72;;;6.30;87.50;;;;;;5012394;28;20088;-78
2022/02/20 06:45:55;;;;;;;16.90;6.63;;;6.30;88.20;;;;;;5011980;28;20034;-77
2022/02/20 06:48:22;;;;;;;24.23;8.45;;;6.40;88.30;;;;;;5013524;28;20578;-77
2022/02/20 06:50:48;;;;;;;12.65;5.85;;;6.40;88.60;;;;;;5009693;28;20014;-77
2022/02/20 06:53:13;;;;;;;14.77;6.20;;;6.40;89.00;;;;;;5014322;28;20037;-77
2022/02/20 06:55:39;;;;;;;15.00;6.00;;;6.50;89.10;;;;;;5003485;28;20038;-78
2022/02/20 06:58:04;;;;;;;22.45;8.50;;;6.50;89.10;;;;;;5004697;28;20050;-77
2022/02/20 07:00:30;;;;;;;13.32;5.43;;;6.50;89.30;;;;;;5009840;28;20029;-79
2022/02/20 07:02:55;;;;;;;12.98;5.18;;;6.60;89.50;;;;;;5007440;28;20032;-79
2022/02/20 07:05:22;;;;;;;11.93;4.88;;;6.70;89.40;;;;;;5013296;28;20392;-78
2022/02/20 07:07:47;;;;;;;13.48;5.00;;;6.70;89.30;;;;;;5007143;28;20845;-78
2022/02/20 07:10:13;;;;;;;11.98;5.22;;;6.80;89.50;;;;;;5007593;28;20097;-77
2022/02/20 07:12:39;;;;;;;10.70;4.25;;;6.80;89.60;;;;;;5013307;28;20026;-79
2022/02/20 07:15:05;;;;;;;5.63;3.25;;;6.90;89.60;;;;;;5013914;28;20546;-78
2022/02/20 07:17:31;;;;;;;16.75;5.90;;;6.90;89.60;;;;;;5002956;28;20084;-79
2022/02/20 07:19:59;;;;;;;11.98;4.32;;;6.90;89.60;;;;;;5007564;28;20030;-78
2022/02/20 07:22:24;;;;;;;11.07;3.78;;;7.00;90.00;;;;;;5001690;28;20041;-78
2022/02/20 07:24:50;;;;;;;13.88;4.57;;;7.00;90.00;;;;;;5003007;28;20057;-78
2022/02/20 07:27:15;;;;;;;9.05;3.53;;;7.10;90.00;;;;;;5006747;28;20133;-77
2022/02/20 07:29:41;;;;;;;9.10;3.58;;;7.10;90.10;;;;;;5007611;28;20041;-78
2022/02/20 07:32:10;;;;;;;9.63;3.22;;;7.10;90.10;;;;;;5016204;28;20025;-77
2022/02/20 07:34:36;;;;;;;12.02;4.00;;;7.20;90.10;;;;;;5019305;28;20053;-77
2022/02/20 07:37:02;;;;;;;7.88;2.80;;;7.30;90.10;;;;;;5016613;28;20025;-78
2022/02/20 07:39:27;;;;;;;8.90;3.25;;;7.30;90.10;;;;;;5010175;28;20034;-78
2022/02/20 07:41:53;;;;;;;10.25;2.85;;;7.40;90.20;;;;;;5015472;28;20148;-78
2022/02/20 07:44:18;;;;;;;11.15;3.75;;;7.40;90.20;;;;;;5018427;28;20123;-77
2022/02/20 07:46:44;;;;;;;8.85;3.50;;;7.50;90.20;;;;;;5011977;28;20032;-78
2022/02/20 07:49:09;;;;;;;7.13;2.75;;;7.50;90.20;;;;;;5013254;28;20024;-78
2022/02/20 07:51:34;;;;;;;7.50;3.15;;;7.60;90.20;;;;;;5022182;28;20087;-79
2022/02/20 07:54:00;;;;;;;10.02;3.22;;;7.60;90.40;;;;;;5020607;28;20037;-78
2022/02/20 07:56:26;;;;;;;7.10;2.08;;;7.70;90.40;;;;;;5016830;28;20610;-75
2022/02/20 07:58:53;;;;;;;6.43;2.30;;;7.80;90.40;;;;;;5007493;28;20037;-74
2022/02/20 08:01:19;;;;;;;4.15;2.22;;;7.90;90.40;;;;;;5012998;28;20029;-74
2022/02/20 08:03:44;;;;;;;8.70;2.55;;;7.90;90.40;;;;;;5008570;28;20436;-74
2022/02/20 08:06:10;;;;;;;8.02;3.53;;;8.00;90.30;;;;;;5011660;28;20354;-73
2022/02/20 08:08:35;;;;;;;6.57;2.60;;;8.10;90.30;;;;;;5015338;28;20022;-74
2022/02/20 08:11:02;;;;;;;9.05;3.38;;;8.10;90.40;;;;;;5016540;28;20088;-74
2022/02/20 08:13:28;;;;;;;4.93;2.40;;;8.10;90.40;;;;;;5015991;28;20065;-74
2022/02/20 08:15:54;;;;;;;7.25;3.03;;;8.20;90.50;;;;;;5012661;28;20030;-75
2022/02/20 08:18:20;;;;;;;6.80;3.53;;;8.30;90.50;;;;;;5013409;28;20038;-75
2022/02/20 08:20:46;;;;;;;5.10;3.03;;;8.30;90.70;;;;;;5016557;28;20530;-75
2022/02/20 08:23:13;;;;;;;7.65;3.10;;;8.40;90.70;;;;;;5018941;28;20116;-75
2022/02/20 08:25:40;;;;;;;5.75;2.90;;;8.50;90.70;;;;;;5021148;28;20540;-75
2022/02/20 08:28:06;;;;;;;6.18;3.55;;;8.50;90.60;;;;;;5010491;28;20136;-74
2022/02/20 08:30:31;;;;;;;4.93;3.40;;;8.60;90.60;;;;;;5013796;28;20129;-74
2022/02/20 08:32:57;;;;;;;5.32;3.40;;;8.70;90.60;;;;;;5007496;28;20110;-74
2022/02/20 08:35:23;;;;;;;4.53;2.92;;;8.70;90.60;;;;;;5014437;28;20476;-74
2022/02/20 08:37:48;;;;;;;4.97;3.03;;;8.80;90.60;;;;;;5009873;28;20118;-74
2022/02/20 08:40:16;;;;;;;7.00;3.97;;;8.90;90.70;;;;;;5013601;28;20026;-74
2022/02/20 08:42:43;;;;;;;5.00;3.80;;;8.90;90.80;;;;;;5010318;28;20022;-75
2022/02/20 08:45:10;;;;;;;5.60;3.22;;;9.00;90.80;;;;;;5015313;28;20764;-74
2022/02/20 08:47:35;;;;;;;5.75;3.40;;;9.00;90.80;;;;;;5014133;28;20056;-75
2022/02/20 08:50:01;;;;;;;5.43;4.10;;;9.10;90.80;;;;;;5016134;28;20030;-75
2022/02/20 08:52:27;;;;;;;6.20;4.00;;;9.10;90.80;;;;;;5007687;28;20472;-74
2022/02/20 08:54:53;;;;;;;6.30;4.50;;;9.20;90.80;;;;;;5010960;28;20107;-74
2022/02/20 08:57:19;;;;;;;6.63;3.90;;;9.20;90.80;;;;;;5018966;28;20072;-76
2022/02/20 08:59:45;;;;;;;7.53;4.80;;;9.30;90.80;;;;;;5015208;28;20025;-75
2022/02/20 09:02:12;;;;;;;10.95;5.55;;;9.30;90.80;;;;;;5015216;28;20021;-75
2022/02/20 09:04:41;;;;;;;7.95;4.07;;;9.30;90.80;;;;;;5010784;28;20036;-75
2022/02/20 09:07:07;;;;;;;8.38;5.10;;;9.40;90.90;;;;;;5006819;28;20041;-74
2022/02/20 09:09:33;;;;;;;10.02;4.85;;;9.50;90.90;;;;;;5014182;28;20034;-75
2022/02/20 09:11:59;;;;;;;8.50;4.78;;;9.50;90.90;;;;;;5008954;28;20476;-76
2022/02/20 09:14:25;;;;;;;10.80;5.10;;;9.50;90.80;;;;;;5008975;28;20041;-73
2022/02/20 09:16:50;;;;;;;12.50;5.70;;;9.60;90.90;;;;;;5011513;28;20092;-74
2022/02/20 09:19:16;;;;;;;10.82;5.10;;;9.60;90.80;;;;;;5004704;28;20033;-74
2022/02/20 09:21:42;;;;;;;11.20;5.60;;;9.70;90.80;;;;;;5009426;28;20578;-74
2022/02/20 09:24:07;;;;;;;14.40;5.47;;;9.70;90.70;;;;;;5011760;28;20022;-74
2022/02/20 09:26:33;;;;;;;13.80;6.40;;;9.80;90.70;;;;;;5010548;28;20461;-74
2022/02/20 09:28:59;;;;;;;14.00;6.40;;;9.80;90.70;;;;;;5011416;28;20045;-74
2022/02/20 09:31:25;;;;;;;13.23;5.57;;;9.80;90.70;;;;;;5008949;28;20108;-74
2022/02/20 09:33:51;;;;;;;12.45;5.40;;;9.90;90.70;;;;;;5010635;28;20022;-74
2022/02/20 09:36:16;;;;;;;18.77;6.53;;;10.00;90.60;;;;;;5010695;28;20061;-74
2022/02/20 09:38:42;;;;;;;14.85;6.22;;;10.00;90.50;;;;;;5004950;28;20022;-74
2022/02/20 09:41:09;;;;;;;15.65;6.90;;;10.00;90.50;;;;;;5011262;28;20029;-75
2022/02/20 09:43:36;;;;;;;19.38;8.30;;;10.10;90.50;;;;;;5008105;28;20049;-74
2022/02/20 09:46:03;;;;;;;17.20;7.85;;;10.10;90.60;;;;;;5009624;28;20041;-74
2022/02/20 09:48:28;;;;;;;15.75;6.47;;;10.10;90.50;;;;;;5009622;28;20030;-74
2022/02/20 09:50:54;;;;;;;18.90;6.88;;;10.20;90.40;;;;;;5010388;28;20018;-74
2022/02/20 09:53:20;;;;;;;16.27;6.88;;;10.20;90.30;;;;;;5005710;28;20033;-75
2022/02/20 09:55:49;;;;;;;16.67;6.90;;;10.30;90.30;;;;;;5006446;28;20029;-74
2022/02/20 09:58:17;;;;;;;16.15;6.43;;;10.30;90.30;;;;;;5006086;28;20025;-74
2022/02/20 10:01:13;;;;;;;15.82;6.57;;;10.30;90.20;;;;;;5008613;28;20049;-74
2022/02/20 10:03:41;;;;;;;21.33;7.72;;;10.40;90.10;;;;;;5010104;28;20480;-74
2022/02/20 10:06:14;;;;;;;20.15;7.43;;;10.40;90.10;;;;;;5007250;28;20120;-74
2022/02/20 10:08:44;;;;;;;;;;;10.40;90.00;;;;;;5005903;28;20519;-75
2022/02/20 10:11:18;;;;;;;17.92;6.20;;;10.40;89.90;;;;;;5008649;28;20375;-74
2022/02/20 10:13:45;;;;;;;20.00;7.15;;;10.40;89.90;;;;;;5010836;28;20570;-74
2022/02/20 10:16:22;;;;;;;19.98;7.47;;;10.50;90.00;;;;;;5009221;28;20030;-75
2022/02/20 10:18:49;;;;;;;19.30;6.82;;;10.50;89.90;;;;;;5006193;28;20041;-74
2022/02/20 10:21:26;;;;;;;13.48;5.10;;;10.50;89.70;;;;;;5011970;28;20030;-75
2022/02/20 10:23:54;;;;;;;14.65;5.10;;;10.60;89.60;;;;;;5008008;28;20034;-74
2022/02/20 10:26:24;;;;;;;22.10;6.63;;;10.60;89.50;;;;;;5006302;28;20084;-75
2022/02/20 10:29:02;;;;;;;19.65;5.97;;;10.60;89.30;;;;;;5013664;28;20033;-74
2022/02/20 10:32:00;;;;;;;28.83;7.65;;;10.60;89.20;;;;;;5006902;28;20042;-75
2022/02/20 10:34:28;;;;;;;23.42;6.50;;;10.60;89.10;;;;;;5008230;28;20176;-76
2022/02/20 10:36:58;;;;;;;28.83;6.97;;;10.60;88.90;;;;;;5011712;28;20022;-75
2022/02/20 10:39:34;;;;;;;22.65;6.22;;;10.70;88.80;;;;;;5007117;28;20029;-75
2022/02/20 10:42:12;;;;;;;18.25;5.40;;;10.70;88.70;;;;;;5013695;28;20025;-75
2022/02/20 10:44:52;;;;;;;16.92;5.50;;;10.80;88.50;;;;;;5007647;28;20030;-75
2022/02/20 10:47:20;;;;;;;20.83;6.10;;;10.80;88.40;;;;;;5012119;28;20039;-76
2022/02/20 10:49:46;;;;;;;26.20;6.05;;;10.80;88.30;;;;;;5010611;28;20475;-75
2022/02/20 10:52:28;;;;;;;26.13;6.75;;;10.80;88.10;;;;;;5013512;28;20030;-74
2022/02/20 10:55:09;;;;;;;20.73;5.78;;;10.80;88.00;;;;;;5008423;28;20087;-75
2022/02/20 10:57:39;;;;;;;22.02;5.70;;;10.80;87.90;;;;;;5012555;28;20030;-84
2022/02/20 11:00:13;;;;;;;26.98;6.82;;;10.90;87.90;;;;;;5014111;28;20046;-77
2022/02/20 11:02:39;;;;;;;21.20;5.50;;;10.90;87.90;;;;;;5013957;28;20017;-76
2022/02/20 11:05:05;;;;;;;21.20;5.22;;;10.90;87.90;;;;;;5010079;28;20040;-75
2022/02/20 11:07:34;;;;;;;26.60;6.03;;;10.80;87.80;;;;;;5010351;28;20030;-75
2022/02/20 11:10:00;;;;;;;24.60;5.50;;;10.90;87.90;;;;;;5012252;28;20543;-76
2022/02/20 11:12:26;;;;;;;27.83;6.25;;;10.90;87.90;;;;;;5008194;28;20165;-76
2022/02/20 11:14:53;;;;;;;20.40;4.90;;;10.90;88.40;;;;;;5008460;28;21125;-76
2022/02/20 11:17:21;;;;;;;20.67;4.82;;;10.90;87.90;;;;;;5013236;28;20029;-76
2022/02/20 11:19:51;;;;;;;24.88;6.15;;;10.90;87.90;;;;;;5015178;28;20030;-76
2022/02/20 11:22:18;;;;;;;25.15;5.32;;;10.90;87.90;;;;;;5008608;28;20018;-75
2022/02/20 11:24:46;;;;;;;23.13;5.55;;;10.90;87.90;;;;;;5006536;28;20026;-75
2022/02/20 11:27:15;;;;;;;24.40;5.32;;;10.90;88.00;;;;;;5003682;28;20038;-77
2022/02/20 11:29:41;;;;;;;21.70;5.57;;;10.90;88.00;;;;;;5001001;28;20026;-76
2022/02/20 11:32:07;;;;;;;19.55;5.57;;;10.90;88.10;;;;;;5003593;28;20063;-75
2022/02/20 11:34:42;;;;;;;18.35;4.97;;;10.90;88.10;;;;;;5012777;28;20022;-74
2022/02/20 11:37:09;;;;;;;26.08;5.97;;;10.90;88.10;;;;;;4999707;28;20030;-74
2022/02/20 11:39:34;;;;;;;24.38;6.05;;;10.90;88.10;;;;;;4994561;28;20513;-73
2022/02/20 11:42:16;;;;;;;24.50;5.25;;;10.90;88.10;;;;;;5002006;28;20038;-75
2022/02/20 11:44:49;;;;;;;21.65;4.65;;;10.90;88.10;;;;;;5005143;28;20523;-77
2022/02/20 11:47:35;;;;;;;19.42;4.85;;;10.90;88.20;;;;;;5004175;28;20056;-75
2022/02/20 11:50:20;;;;;;;21.75;5.22;;;10.90;88.30;;;;;;5002814;28;20579;-76
2022/02/20 11:52:58;;;;;;;26.23;5.63;;;10.80;88.40;;;;;;5004652;28;20021;-78
2022/02/20 11:55:38;;;;;;;17.80;5.10;;;10.80;88.70;;;;;;5006966;28;20026;-75
2022/02/20 11:58:55;;;;;;;17.23;4.65;;;10.80;88.80;;;;;;5005089;28;20535;-76
2022/02/20 12:01:09;;;;;;;16.65;4.55;;;10.80;88.80;;;;;;4996931;28;20126;-75
2022/02/20 12:03:41;;;;;;;19.30;4.43;;;10.80;88.80;;;;;;5008132;28;20054;-75
2022/02/20 12:06:14;;;;;;;21.45;4.38;;;10.80;88.90;;;;;;5007361;28;20034;-76
2022/02/20 12:08:41;;;;;;;19.33;4.68;;;10.80;88.90;;;;;;5009512;28;20030;-76
2022/02/20 12:11:10;;;;;;;19.42;4.60;;;10.80;89.00;;;;;;5000655;28;20018;-76
2022/02/20 12:13:48;;;;;;;17.15;4.05;;;10.70;89.10;;;;;;5003676;28;20025;-75
2022/02/20 12:16:37;;;;;;;17.88;3.78;;;10.70;89.20;;;;;;4990538;28;20467;-76
2022/02/20 12:19:13;;;;;;;22.98;5.65;;;10.70;89.20;;;;;;5006388;28;20049;-76
2022/02/20 12:22:14;;;;;;;15.95;3.67;;;10.70;89.20;;;;;;5006621;28;20018;-75
2022/02/20 12:24:41;;;;;;;15.20;4.00;;;10.70;89.20;;;;;;4995771;28;20104;-73
2022/02/20 12:27:11;;;;;;;16.65;4.25;;;10.70;89.20;;;;;;5002464;28;20041;-74
2022/02/20 12:29:39;;;;;;;18.15;4.70;;;10.70;89.30;;;;;;5008792;28;20845;-74
2022/02/20 12:32:18;;;;;;;15.05;4.40;;;10.70;89.40;;;;;;4997655;28;20091;-75
2022/02/20 12:35:15;;;;;;;16.83;4.00;;;10.70;89.50;;;;;;5002241;28;20030;-76
2022/02/20 12:37:50;;;;;;;16.52;3.80;;;10.70;89.50;;;;;;5008108;28;20018;-76
2022/02/20 12:40:31;;;;;;;16.05;4.53;;;10.70;89.40;;;;;;5000823;28;20508;-76
2022/02/20 12:42:58;;;;;;;16.50;4.82;;;10.70;89.50;;;;;;5010419;28;20036;-76
2022/02/20 12:45:29;;;;;;;33.25;14.70;;;10.70;89.50;;;;;;5013330;28;20439;-76
2022/02/20 12:47:59;;;;;;;27.98;13.85;;;10.60;89.70;;;;;;5006301;28;20069;-76
2022/02/20 12:50:28;;;;;;;21.60;6.88;;;10.60;89.70;;;;;;5018011;28;20395;-76
2022/02/20 12:52:55;;;;;;;19.90;6.75;;;10.60;89.80;;;;;;5016880;28;20073;-76